Terminal Aerodrome Forecast
Issued by NWS

Home | Current Version | Previous Version | Text Only | Print | Product List | Glossary On
Versions: 1 2 3 4 5 6 7 8 9 10 11 12 13 14 15 16 17 18 19 20 21 22 23 24
000
FTUS45 KGGW 211731
TAFGDV
TAF
KGDV 211731Z 2118/2218 31012G20KT P6SM BKN040
      TEMPO 2118/2122 6SM -SHRA OVC025
     FM220000 VRB06KT P6SM FEW090=

USA.gov is the U.S. government's official web portal to all federal, state and local government web resources and services.